sensor_id;sensor_type;location;lat;lon;timestamp;P1;durP1;ratioP1;P2;durP2;ratioP2
26656;SDS011;14279;50.010;8.260;2022-12-13T00:00:16;46.47;;;21.93;;
26656;SDS011;14279;50.010;8.260;2022-12-13T00:02:42;47.50;;;23.60;;
26656;SDS011;14279;50.010;8.260;2022-12-13T00:05:09;40.80;;;22.20;;
26656;SDS011;14279;50.010;8.260;2022-12-13T00:07:35;46.43;;;22.10;;
26656;SDS011;14279;50.010;8.260;2022-12-13T00:10:00;40.67;;;21.97;;
26656;SDS011;14279;50.010;8.260;2022-12-13T00:12:26;37.37;;;20.77;;
26656;SDS011;14279;50.010;8.260;2022-12-13T00:14:52;43.20;;;22.23;;
26656;SDS011;14279;50.010;8.260;2022-12-13T00:17:17;46.27;;;22.77;;
26656;SDS011;14279;50.010;8.260;2022-12-13T00:19:43;43.30;;;22.20;;
26656;SDS011;14279;50.010;8.260;2022-12-13T00:22:10;43.33;;;22.80;;
26656;SDS011;14279;50.010;8.260;2022-12-13T00:24:36;41.93;;;23.10;;
26656;SDS011;14279;50.010;8.260;2022-12-13T00:27:01;43.17;;;22.87;;
26656;SDS011;14279;50.010;8.260;2022-12-13T00:29:26;46.97;;;23.80;;
26656;SDS011;14279;50.010;8.260;2022-12-13T00:31:51;42.23;;;21.90;;
26656;SDS011;14279;50.010;8.260;2022-12-13T00:34:17;47.07;;;23.20;;
26656;SDS011;14279;50.010;8.260;2022-12-13T00:39:52;40.80;;;22.03;;
26656;SDS011;14279;50.010;8.260;2022-12-13T00:42:17;38.83;;;21.23;;
26656;SDS011;14279;50.010;8.260;2022-12-13T00:44:42;40.27;;;21.50;;
26656;SDS011;14279;50.010;8.260;2022-12-13T00:47:08;41.40;;;21.53;;
26656;SDS011;14279;50.010;8.260;2022-12-13T00:49:33;43.50;;;20.83;;
26656;SDS011;14279;50.010;8.260;2022-12-13T00:51:58;44.07;;;21.70;;
26656;SDS011;14279;50.010;8.260;2022-12-13T00:54:24;40.23;;;21.03;;
26656;SDS011;14279;50.010;8.260;2022-12-13T00:56:49;38.30;;;20.90;;
26656;SDS011;14279;50.010;8.260;2022-12-13T00:59:15;42.07;;;21.97;;
26656;SDS011;14279;50.010;8.260;2022-12-13T01:01:41;39.00;;;20.70;;
26656;SDS011;14279;50.010;8.260;2022-12-13T01:04:06;41.57;;;19.70;;
26656;SDS011;14279;50.010;8.260;2022-12-13T01:06:36;48.53;;;22.87;;
26656;SDS011;14279;50.010;8.260;2022-12-13T01:09:04;39.20;;;21.10;;
26656;SDS011;14279;50.010;8.260;2022-12-13T01:11:31;43.00;;;20.80;;
26656;SDS011;14279;50.010;8.260;2022-12-13T01:13:56;44.60;;;21.80;;
26656;SDS011;14279;50.010;8.260;2022-12-13T01:16:22;42.57;;;20.93;;
26656;SDS011;14279;50.010;8.260;2022-12-13T01:18:47;43.00;;;23.17;;
26656;SDS011;14279;50.010;8.260;2022-12-13T01:21:14;41.97;;;22.03;;
26656;SDS011;14279;50.010;8.260;2022-12-13T01:23:41;40.20;;;20.43;;
26656;SDS011;14279;50.010;8.260;2022-12-13T01:26:08;39.57;;;21.30;;
26656;SDS011;14279;50.010;8.260;2022-12-13T01:28:35;38.00;;;20.90;;
26656;SDS011;14279;50.010;8.260;2022-12-13T01:31:02;41.10;;;22.23;;
26656;SDS011;14279;50.010;8.260;2022-12-13T01:33:30;40.87;;;21.57;;
26656;SDS011;14279;50.010;8.260;2022-12-13T01:35:58;41.03;;;21.50;;
26656;SDS011;14279;50.010;8.260;2022-12-13T01:38:28;39.30;;;20.90;;
26656;SDS011;14279;50.010;8.260;2022-12-13T01:40:53;42.57;;;21.40;;
26656;SDS011;14279;50.010;8.260;2022-12-13T01:43:31;51.30;;;22.43;;
26656;SDS011;14279;50.010;8.260;2022-12-13T01:46:11;41.90;;;21.03;;
26656;SDS011;14279;50.010;8.260;2022-12-13T01:48:44;45.20;;;22.17;;
26656;SDS011;14279;50.010;8.260;2022-12-13T01:51:16;42.80;;;21.30;;
26656;SDS011;14279;50.010;8.260;2022-12-13T01:53:44;44.27;;;20.57;;
26656;SDS011;14279;50.010;8.260;2022-12-13T01:56:16;37.80;;;20.60;;
26656;SDS011;14279;50.010;8.260;2022-12-13T01:58:45;38.20;;;20.80;;
26656;SDS011;14279;50.010;8.260;2022-12-13T02:01:12;42.13;;;20.73;;
26656;SDS011;14279;50.010;8.260;2022-12-13T02:03:37;39.23;;;21.27;;
26656;SDS011;14279;50.010;8.260;2022-12-13T02:06:09;40.60;;;20.23;;
26656;SDS011;14279;50.010;8.260;2022-12-13T02:08:40;40.80;;;22.10;;
26656;SDS011;14279;50.010;8.260;2022-12-13T02:11:08;42.20;;;21.33;;
26656;SDS011;14279;50.010;8.260;2022-12-13T02:13:34;47.93;;;21.27;;
26656;SDS011;14279;50.010;8.260;2022-12-13T02:21:17;40.80;;;20.10;;
26656;SDS011;14279;50.010;8.260;2022-12-13T02:26:59;37.37;;;20.57;;
26656;SDS011;14279;50.010;8.260;2022-12-13T02:38:15;44.53;;;21.40;;
26656;SDS011;14279;50.010;8.260;2022-12-13T02:41:00;35.13;;;19.40;;
26656;SDS011;14279;50.010;8.260;2022-12-13T02:43:35;37.43;;;19.10;;
26656;SDS011;14279;50.010;8.260;2022-12-13T02:46:09;33.63;;;18.50;;
26656;SDS011;14279;50.010;8.260;2022-12-13T02:48:42;43.10;;;20.00;;
26656;SDS011;14279;50.010;8.260;2022-12-13T02:51:10;33.80;;;19.90;;
26656;SDS011;14279;50.010;8.260;2022-12-13T02:53:37;35.03;;;19.30;;
26656;SDS011;14279;50.010;8.260;2022-12-13T02:56:05;40.67;;;20.30;;
26656;SDS011;14279;50.010;8.260;2022-12-13T02:58:32;40.27;;;20.77;;
26656;SDS011;14279;50.010;8.260;2022-12-13T03:01:05;39.63;;;21.10;;
26656;SDS011;14279;50.010;8.260;2022-12-13T03:04:00;40.03;;;19.70;;
26656;SDS011;14279;50.010;8.260;2022-12-13T03:06:38;41.80;;;19.90;;
26656;SDS011;14279;50.010;8.260;2022-12-13T03:11:37;37.77;;;20.27;;
26656;SDS011;14279;50.010;8.260;2022-12-13T03:14:34;39.67;;;18.50;;
26656;SDS011;14279;50.010;8.260;2022-12-13T03:17:04;39.33;;;20.67;;
26656;SDS011;14279;50.010;8.260;2022-12-13T03:19:32;36.40;;;18.87;;
26656;SDS011;14279;50.010;8.260;2022-12-13T03:21:57;45.93;;;20.10;;
26656;SDS011;14279;50.010;8.260;2022-12-13T03:24:22;39.40;;;19.93;;
26656;SDS011;14279;50.010;8.260;2022-12-13T03:26:48;34.37;;;18.20;;
26656;SDS011;14279;50.010;8.260;2022-12-13T03:29:14;36.80;;;18.30;;
26656;SDS011;14279;50.010;8.260;2022-12-13T03:31:40;39.07;;;19.43;;
26656;SDS011;14279;50.010;8.260;2022-12-13T03:34:05;43.80;;;19.63;;
26656;SDS011;14279;50.010;8.260;2022-12-13T03:36:30;37.53;;;18.33;;
26656;SDS011;14279;50.010;8.260;2022-12-13T03:38:56;38.33;;;19.03;;
26656;SDS011;14279;50.010;8.260;2022-12-13T03:41:23;37.83;;;19.73;;
26656;SDS011;14279;50.010;8.260;2022-12-13T03:43:59;38.40;;;20.20;;
26656;SDS011;14279;50.010;8.260;2022-12-13T03:46:29;35.27;;;18.90;;
26656;SDS011;14279;50.010;8.260;2022-12-13T03:48:54;33.47;;;18.20;;
26656;SDS011;14279;50.010;8.260;2022-12-13T03:51:19;37.87;;;18.97;;
26656;SDS011;14279;50.010;8.260;2022-12-13T03:53:45;37.70;;;20.07;;
26656;SDS011;14279;50.010;8.260;2022-12-13T03:56:10;35.73;;;18.57;;
26656;SDS011;14279;50.010;8.260;2022-12-13T03:58:35;37.00;;;18.90;;
26656;SDS011;14279;50.010;8.260;2022-12-13T04:01:01;36.73;;;19.23;;
26656;SDS011;14279;50.010;8.260;2022-12-13T04:03:26;39.00;;;19.87;;
26656;SDS011;14279;50.010;8.260;2022-12-13T04:05:51;34.37;;;18.37;;
26656;SDS011;14279;50.010;8.260;2022-12-13T04:08:17;37.60;;;18.93;;
26656;SDS011;14279;50.010;8.260;2022-12-13T04:10:42;34.97;;;18.77;;
26656;SDS011;14279;50.010;8.260;2022-12-13T04:13:08;41.60;;;20.27;;
26656;SDS011;14279;50.010;8.260;2022-12-13T04:15:53;40.47;;;19.60;;
26656;SDS011;14279;50.010;8.260;2022-12-13T04:18:18;39.23;;;19.40;;
26656;SDS011;14279;50.010;8.260;2022-12-13T04:20:44;40.70;;;19.67;;
26656;SDS011;14279;50.010;8.260;2022-12-13T04:23:09;40.03;;;18.73;;
26656;SDS011;14279;50.010;8.260;2022-12-13T04:25:35;34.27;;;18.50;;
26656;SDS011;14279;50.010;8.260;2022-12-13T04:28:01;36.90;;;19.90;;
26656;SDS011;14279;50.010;8.260;2022-12-13T04:30:27;38.80;;;18.73;;
26656;SDS011;14279;50.010;8.260;2022-12-13T04:32:52;36.03;;;18.20;;
26656;SDS011;14279;50.010;8.260;2022-12-13T04:35:17;36.33;;;17.90;;
26656;SDS011;14279;50.010;8.260;2022-12-13T04:37:43;38.97;;;18.17;;
26656;SDS011;14279;50.010;8.260;2022-12-13T04:40:08;40.13;;;18.23;;
26656;SDS011;14279;50.010;8.260;2022-12-13T04:42:34;35.93;;;18.47;;
26656;SDS011;14279;50.010;8.260;2022-12-13T04:44:59;37.03;;;19.27;;
26656;SDS011;14279;50.010;8.260;2022-12-13T04:47:24;41.87;;;18.60;;
26656;SDS011;14279;50.010;8.260;2022-12-13T04:49:50;37.23;;;19.30;;
26656;SDS011;14279;50.010;8.260;2022-12-13T04:52:15;35.40;;;19.00;;
26656;SDS011;14279;50.010;8.260;2022-12-13T04:54:40;36.37;;;19.13;;
26656;SDS011;14279;50.010;8.260;2022-12-13T04:57:06;35.33;;;19.67;;
26656;SDS011;14279;50.010;8.260;2022-12-13T04:59:34;38.07;;;19.60;;
26656;SDS011;14279;50.010;8.260;2022-12-13T05:02:00;34.10;;;17.27;;
26656;SDS011;14279;50.010;8.260;2022-12-13T05:04:25;35.67;;;17.27;;
26656;SDS011;14279;50.010;8.260;2022-12-13T05:06:50;39.17;;;20.13;;
26656;SDS011;14279;50.010;8.260;2022-12-13T05:09:15;36.40;;;18.70;;
26656;SDS011;14279;50.010;8.260;2022-12-13T05:11:41;37.47;;;19.27;;
26656;SDS011;14279;50.010;8.260;2022-12-13T05:14:06;37.67;;;19.70;;
26656;SDS011;14279;50.010;8.260;2022-12-13T05:16:31;36.60;;;18.30;;
26656;SDS011;14279;50.010;8.260;2022-12-13T05:18:56;39.47;;;18.87;;
26656;SDS011;14279;50.010;8.260;2022-12-13T05:21:22;35.73;;;17.60;;
26656;SDS011;14279;50.010;8.260;2022-12-13T05:23:47;36.53;;;17.67;;
26656;SDS011;14279;50.010;8.260;2022-12-13T05:26:12;34.93;;;19.50;;
26656;SDS011;14279;50.010;8.260;2022-12-13T05:28:37;42.43;;;19.00;;
26656;SDS011;14279;50.010;8.260;2022-12-13T05:31:07;38.90;;;19.80;;
26656;SDS011;14279;50.010;8.260;2022-12-13T05:33:34;32.70;;;17.40;;
26656;SDS011;14279;50.010;8.260;2022-12-13T05:36:00;36.23;;;19.40;;
26656;SDS011;14279;50.010;8.260;2022-12-13T05:38:25;35.93;;;18.90;;
26656;SDS011;14279;50.010;8.260;2022-12-13T05:40:51;36.20;;;19.37;;
26656;SDS011;14279;50.010;8.260;2022-12-13T05:43:16;40.77;;;17.93;;
26656;SDS011;14279;50.010;8.260;2022-12-13T05:45:41;38.23;;;20.37;;
26656;SDS011;14279;50.010;8.260;2022-12-13T05:48:06;34.47;;;18.00;;
26656;SDS011;14279;50.010;8.260;2022-12-13T05:50:32;37.53;;;18.93;;
26656;SDS011;14279;50.010;8.260;2022-12-13T05:52:58;39.87;;;21.23;;
26656;SDS011;14279;50.010;8.260;2022-12-13T05:55:23;37.93;;;18.13;;
26656;SDS011;14279;50.010;8.260;2022-12-13T05:57:48;34.53;;;18.50;;
26656;SDS011;14279;50.010;8.260;2022-12-13T06:00:14;36.07;;;19.20;;
26656;SDS011;14279;50.010;8.260;2022-12-13T06:02:40;37.00;;;19.30;;
26656;SDS011;14279;50.010;8.260;2022-12-13T06:05:06;34.07;;;18.50;;
26656;SDS011;14279;50.010;8.260;2022-12-13T06:07:33;34.90;;;17.80;;
26656;SDS011;14279;50.010;8.260;2022-12-13T06:09:59;34.27;;;17.87;;
26656;SDS011;14279;50.010;8.260;2022-12-13T06:12:24;38.23;;;18.60;;
26656;SDS011;14279;50.010;8.260;2022-12-13T06:14:50;36.20;;;18.40;;
26656;SDS011;14279;50.010;8.260;2022-12-13T06:17:15;38.03;;;18.57;;
26656;SDS011;14279;50.010;8.260;2022-12-13T06:19:40;36.27;;;18.07;;
26656;SDS011;14279;50.010;8.260;2022-12-13T06:22:05;40.53;;;18.90;;
26656;SDS011;14279;50.010;8.260;2022-12-13T06:24:31;45.07;;;19.50;;
26656;SDS011;14279;50.010;8.260;2022-12-13T06:26:56;36.17;;;19.17;;
26656;SDS011;14279;50.010;8.260;2022-12-13T06:29:24;38.23;;;19.10;;
26656;SDS011;14279;50.010;8.260;2022-12-13T06:31:53;38.60;;;19.87;;
26656;SDS011;14279;50.010;8.260;2022-12-13T06:34:20;36.83;;;19.50;;
26656;SDS011;14279;50.010;8.260;2022-12-13T06:36:46;29.37;;;17.57;;
26656;SDS011;14279;50.010;8.260;2022-12-13T06:39:11;36.13;;;18.00;;
26656;SDS011;14279;50.010;8.260;2022-12-13T06:41:36;35.37;;;18.23;;
26656;SDS011;14279;50.010;8.260;2022-12-13T06:44:01;34.57;;;19.03;;
26656;SDS011;14279;50.010;8.260;2022-12-13T06:46:27;36.50;;;18.50;;
26656;SDS011;14279;50.010;8.260;2022-12-13T06:48:52;37.90;;;18.40;;
26656;SDS011;14279;50.010;8.260;2022-12-13T06:51:18;35.17;;;19.00;;
26656;SDS011;14279;50.010;8.260;2022-12-13T06:53:43;41.10;;;18.83;;
26656;SDS011;14279;50.010;8.260;2022-12-13T06:56:10;37.50;;;18.87;;
26656;SDS011;14279;50.010;8.260;2022-12-13T06:58:37;33.30;;;17.70;;
26656;SDS011;14279;50.010;8.260;2022-12-13T07:01:10;31.10;;;17.40;;
26656;SDS011;14279;50.010;8.260;2022-12-13T07:03:37;35.20;;;17.60;;
26656;SDS011;14279;50.010;8.260;2022-12-13T07:06:04;31.33;;;17.00;;
26656;SDS011;14279;50.010;8.260;2022-12-13T07:08:40;34.93;;;17.47;;
26656;SDS011;14279;50.010;8.260;2022-12-13T07:11:07;32.00;;;16.77;;
26656;SDS011;14279;50.010;8.260;2022-12-13T07:13:37;36.97;;;18.03;;
26656;SDS011;14279;50.010;8.260;2022-12-13T07:16:02;31.40;;;17.57;;
26656;SDS011;14279;50.010;8.260;2022-12-13T07:18:27;38.03;;;18.53;;
26656;SDS011;14279;50.010;8.260;2022-12-13T07:20:53;34.80;;;17.67;;
26656;SDS011;14279;50.010;8.260;2022-12-13T07:23:18;31.63;;;18.20;;
26656;SDS011;14279;50.010;8.260;2022-12-13T07:25:52;32.97;;;17.73;;
26656;SDS011;14279;50.010;8.260;2022-12-13T07:28:19;37.27;;;18.10;;
26656;SDS011;14279;50.010;8.260;2022-12-13T07:30:45;29.77;;;16.77;;
26656;SDS011;14279;50.010;8.260;2022-12-13T07:33:10;34.20;;;17.47;;
26656;SDS011;14279;50.010;8.260;2022-12-13T07:35:36;33.50;;;17.73;;
26656;SDS011;14279;50.010;8.260;2022-12-13T07:38:02;31.20;;;16.10;;
26656;SDS011;14279;50.010;8.260;2022-12-13T07:40:27;34.90;;;18.00;;
26656;SDS011;14279;50.010;8.260;2022-12-13T07:42:53;28.20;;;15.90;;
26656;SDS011;14279;50.010;8.260;2022-12-13T07:45:20;31.27;;;16.63;;
26656;SDS011;14279;50.010;8.260;2022-12-13T07:47:47;34.60;;;16.07;;
26656;SDS011;14279;50.010;8.260;2022-12-13T07:50:13;30.80;;;16.13;;
26656;SDS011;14279;50.010;8.260;2022-12-13T07:52:39;32.63;;;17.23;;
26656;SDS011;14279;50.010;8.260;2022-12-13T07:55:04;29.13;;;16.40;;
26656;SDS011;14279;50.010;8.260;2022-12-13T07:57:35;31.43;;;15.93;;
26656;SDS011;14279;50.010;8.260;2022-12-13T08:00:01;28.17;;;16.03;;
26656;SDS011;14279;50.010;8.260;2022-12-13T08:02:27;31.40;;;16.47;;
26656;SDS011;14279;50.010;8.260;2022-12-13T08:04:52;29.10;;;16.77;;
26656;SDS011;14279;50.010;8.260;2022-12-13T08:07:18;29.07;;;16.20;;
26656;SDS011;14279;50.010;8.260;2022-12-13T08:09:43;28.43;;;15.60;;
26656;SDS011;14279;50.010;8.260;2022-12-13T08:12:08;33.93;;;17.63;;
26656;SDS011;14279;50.010;8.260;2022-12-13T08:14:34;35.73;;;17.20;;
26656;SDS011;14279;50.010;8.260;2022-12-13T08:16:59;37.60;;;16.63;;
26656;SDS011;14279;50.010;8.260;2022-12-13T08:19:25;30.10;;;15.93;;
26656;SDS011;14279;50.010;8.260;2022-12-13T08:21:50;30.10;;;16.20;;
26656;SDS011;14279;50.010;8.260;2022-12-13T08:24:16;31.33;;;17.53;;
26656;SDS011;14279;50.010;8.260;2022-12-13T08:26:42;31.67;;;16.80;;
26656;SDS011;14279;50.010;8.260;2022-12-13T08:29:08;30.63;;;15.43;;
26656;SDS011;14279;50.010;8.260;2022-12-13T08:31:33;30.97;;;17.33;;
26656;SDS011;14279;50.010;8.260;2022-12-13T08:33:58;34.33;;;17.50;;
26656;SDS011;14279;50.010;8.260;2022-12-13T08:36:24;26.63;;;15.50;;
26656;SDS011;14279;50.010;8.260;2022-12-13T08:38:49;30.27;;;16.97;;
26656;SDS011;14279;50.010;8.260;2022-12-13T08:41:18;28.77;;;16.80;;
26656;SDS011;14279;50.010;8.260;2022-12-13T08:43:44;34.67;;;16.50;;
26656;SDS011;14279;50.010;8.260;2022-12-13T08:46:09;29.10;;;15.90;;
26656;SDS011;14279;50.010;8.260;2022-12-13T08:48:35;28.43;;;16.00;;
26656;SDS011;14279;50.010;8.260;2022-12-13T08:51:01;29.03;;;16.23;;
26656;SDS011;14279;50.010;8.260;2022-12-13T08:53:28;29.40;;;16.27;;
26656;SDS011;14279;50.010;8.260;2022-12-13T08:55:58;38.50;;;17.57;;
26656;SDS011;14279;50.010;8.260;2022-12-13T08:58:24;29.70;;;16.30;;
26656;SDS011;14279;50.010;8.260;2022-12-13T09:00:49;28.40;;;16.10;;
26656;SDS011;14279;50.010;8.260;2022-12-13T09:03:14;29.40;;;16.80;;
26656;SDS011;14279;50.010;8.260;2022-12-13T09:05:40;30.20;;;15.20;;
26656;SDS011;14279;50.010;8.260;2022-12-13T09:11:29;29.67;;;15.00;;
26656;SDS011;14279;50.010;8.260;2022-12-13T09:14:04;28.37;;;15.40;;
26656;SDS011;14279;50.010;8.260;2022-12-13T09:16:29;32.07;;;16.60;;
26656;SDS011;14279;50.010;8.260;2022-12-13T09:18:55;30.97;;;16.60;;
26656;SDS011;14279;50.010;8.260;2022-12-13T09:21:21;25.93;;;15.67;;
26656;SDS011;14279;50.010;8.260;2022-12-13T09:23:49;30.33;;;14.77;;
26656;SDS011;14279;50.010;8.260;2022-12-13T09:26:14;33.30;;;16.67;;
26656;SDS011;14279;50.010;8.260;2022-12-13T09:28:40;25.17;;;14.50;;
26656;SDS011;14279;50.010;8.260;2022-12-13T09:31:07;26.50;;;14.57;;
26656;SDS011;14279;50.010;8.260;2022-12-13T09:33:40;23.03;;;13.90;;
26656;SDS011;14279;50.010;8.260;2022-12-13T09:36:16;26.50;;;14.20;;
26656;SDS011;14279;50.010;8.260;2022-12-13T09:38:42;24.43;;;13.53;;
26656;SDS011;14279;50.010;8.260;2022-12-13T09:41:14;26.60;;;14.30;;
26656;SDS011;14279;50.010;8.260;2022-12-13T09:43:44;27.43;;;13.77;;
26656;SDS011;14279;50.010;8.260;2022-12-13T09:46:31;24.63;;;13.63;;
26656;SDS011;14279;50.010;8.260;2022-12-13T09:55:46;31.00;;;15.27;;
26656;SDS011;14279;50.010;8.260;2022-12-13T10:46:50;23.40;;;13.30;;
26656;SDS011;14279;50.010;8.260;2022-12-13T10:55:31;28.90;;;15.40;;
26656;SDS011;14279;50.010;8.260;2022-12-13T10:58:05;25.53;;;14.17;;
26656;SDS011;14279;50.010;8.260;2022-12-13T11:00:37;23.67;;;14.07;;
26656;SDS011;14279;50.010;8.260;2022-12-13T11:03:09;25.80;;;14.70;;
26656;SDS011;14279;50.010;8.260;2022-12-13T11:09:00;26.40;;;13.13;;
26656;SDS011;14279;50.010;8.260;2022-12-13T11:11:26;25.00;;;13.20;;
26656;SDS011;14279;50.010;8.260;2022-12-13T11:16:39;25.47;;;12.40;;
26656;SDS011;14279;50.010;8.260;2022-12-13T11:19:17;20.30;;;12.70;;
26656;SDS011;14279;50.010;8.260;2022-12-13T11:21:50;23.37;;;13.63;;
26656;SDS011;14279;50.010;8.260;2022-12-13T11:24:22;25.73;;;13.23;;
26656;SDS011;14279;50.010;8.260;2022-12-13T11:29:59;21.50;;;12.17;;
26656;SDS011;14279;50.010;8.260;2022-12-13T11:40:48;25.40;;;13.30;;
26656;SDS011;14279;50.010;8.260;2022-12-13T11:43:37;20.57;;;12.57;;
26656;SDS011;14279;50.010;8.260;2022-12-13T11:52:14;29.20;;;12.87;;
26656;SDS011;14279;50.010;8.260;2022-12-13T11:54:53;20.07;;;11.73;;
26656;SDS011;14279;50.010;8.260;2022-12-13T11:57:42;22.13;;;11.70;;
26656;SDS011;14279;50.010;8.260;2022-12-13T12:05:45;22.30;;;12.70;;
26656;SDS011;14279;50.010;8.260;2022-12-13T12:11:01;23.87;;;11.47;;
26656;SDS011;14279;50.010;8.260;2022-12-13T12:13:41;21.90;;;11.60;;
26656;SDS011;14279;50.010;8.260;2022-12-13T12:19:12;26.40;;;12.50;;
26656;SDS011;14279;50.010;8.260;2022-12-13T12:22:26;21.57;;;12.40;;
26656;SDS011;14279;50.010;8.260;2022-12-13T12:24:59;20.37;;;13.00;;
26656;SDS011;14279;50.010;8.260;2022-12-13T12:30:22;21.90;;;12.20;;
26656;SDS011;14279;50.010;8.260;2022-12-13T12:33:05;22.77;;;12.80;;
26656;SDS011;14279;50.010;8.260;2022-12-13T12:35:54;28.53;;;14.00;;
26656;SDS011;14279;50.010;8.260;2022-12-13T12:51:59;24.83;;;13.10;;
26656;SDS011;14279;50.010;8.260;2022-12-13T12:54:42;25.10;;;12.80;;
26656;SDS011;14279;50.010;8.260;2022-12-13T12:57:20;20.57;;;11.80;;
26656;SDS011;14279;50.010;8.260;2022-12-13T13:02:38;20.43;;;12.53;;
26656;SDS011;14279;50.010;8.260;2022-12-13T13:05:20;20.80;;;13.63;;
26656;SDS011;14279;50.010;8.260;2022-12-13T13:08:09;18.93;;;10.90;;
26656;SDS011;14279;50.010;8.260;2022-12-13T13:10:39;18.23;;;10.80;;
26656;SDS011;14279;50.010;8.260;2022-12-13T13:15:57;22.40;;;11.90;;
26656;SDS011;14279;50.010;8.260;2022-12-13T13:18:42;18.10;;;10.90;;
26656;SDS011;14279;50.010;8.260;2022-12-13T13:32:03;18.77;;;11.03;;
26656;SDS011;14279;50.010;8.260;2022-12-13T13:34:39;21.47;;;11.70;;
26656;SDS011;14279;50.010;8.260;2022-12-13T13:39:55;19.80;;;11.10;;
26656;SDS011;14279;50.010;8.260;2022-12-13T13:42:31;22.90;;;13.00;;
26656;SDS011;14279;50.010;8.260;2022-12-13T13:47:45;22.03;;;12.30;;
26656;SDS011;14279;50.010;8.260;2022-12-13T13:55:48;24.60;;;12.73;;
26656;SDS011;14279;50.010;8.260;2022-12-13T14:13:31;23.97;;;13.43;;
26656;SDS011;14279;50.010;8.260;2022-12-13T14:19:38;19.73;;;12.47;;
26656;SDS011;14279;50.010;8.260;2022-12-13T14:28:04;20.87;;;12.53;;
26656;SDS011;14279;50.010;8.260;2022-12-13T14:30:33;27.50;;;14.47;;
26656;SDS011;14279;50.010;8.260;2022-12-13T14:33:01;24.00;;;13.50;;
26656;SDS011;14279;50.010;8.260;2022-12-13T14:35:28;25.80;;;14.00;;
26656;SDS011;14279;50.010;8.260;2022-12-13T14:37:56;23.40;;;13.10;;
26656;SDS011;14279;50.010;8.260;2022-12-13T14:40:30;23.43;;;13.37;;
26656;SDS011;14279;50.010;8.260;2022-12-13T14:42:58;22.33;;;12.80;;
26656;SDS011;14279;50.010;8.260;2022-12-13T14:45:28;21.23;;;12.37;;
26656;SDS011;14279;50.010;8.260;2022-12-13T14:47:59;27.33;;;14.37;;
26656;SDS011;14279;50.010;8.260;2022-12-13T14:50:27;23.27;;;13.50;;
26656;SDS011;14279;50.010;8.260;2022-12-13T14:52:56;24.67;;;13.70;;
26656;SDS011;14279;50.010;8.260;2022-12-13T14:55:24;23.53;;;13.03;;
26656;SDS011;14279;50.010;8.260;2022-12-13T14:57:53;26.77;;;13.03;;
26656;SDS011;14279;50.010;8.260;2022-12-13T15:00:31;25.40;;;13.50;;
26656;SDS011;14279;50.010;8.260;2022-12-13T15:02:59;26.07;;;14.53;;
26656;SDS011;14279;50.010;8.260;2022-12-13T15:08:14;23.90;;;13.10;;
26656;SDS011;14279;50.010;8.260;2022-12-13T15:10:52;23.77;;;12.23;;
26656;SDS011;14279;50.010;8.260;2022-12-13T15:13:27;22.03;;;12.60;;
26656;SDS011;14279;50.010;8.260;2022-12-13T15:15:59;23.60;;;13.83;;
26656;SDS011;14279;50.010;8.260;2022-12-13T15:18:26;24.27;;;14.30;;
26656;SDS011;14279;50.010;8.260;2022-12-13T15:20:54;30.83;;;14.43;;
26656;SDS011;14279;50.010;8.260;2022-12-13T15:28:32;28.40;;;15.37;;
26656;SDS011;14279;50.010;8.260;2022-12-13T15:31:00;28.17;;;16.40;;
26656;SDS011;14279;50.010;8.260;2022-12-13T15:33:28;28.10;;;15.33;;
26656;SDS011;14279;50.010;8.260;2022-12-13T15:38:34;28.50;;;13.60;;
26656;SDS011;14279;50.010;8.260;2022-12-13T15:41:01;26.77;;;14.77;;
26656;SDS011;14279;50.010;8.260;2022-12-13T15:43:31;25.33;;;13.77;;
26656;SDS011;14279;50.010;8.260;2022-12-13T15:56:29;24.70;;;13.93;;
26656;SDS011;14279;50.010;8.260;2022-12-13T15:58:55;27.83;;;14.03;;
26656;SDS011;14279;50.010;8.260;2022-12-13T16:01:27;24.63;;;13.77;;
26656;SDS011;14279;50.010;8.260;2022-12-13T16:03:54;22.20;;;13.23;;
26656;SDS011;14279;50.010;8.260;2022-12-13T16:06:20;27.57;;;14.57;;
26656;SDS011;14279;50.010;8.260;2022-12-13T16:08:48;24.50;;;14.20;;
26656;SDS011;14279;50.010;8.260;2022-12-13T16:11:15;27.43;;;15.77;;
26656;SDS011;14279;50.010;8.260;2022-12-13T16:13:51;26.30;;;13.33;;
26656;SDS011;14279;50.010;8.260;2022-12-13T16:16:25;23.93;;;12.70;;
26656;SDS011;14279;50.010;8.260;2022-12-13T16:18:53;28.07;;;14.00;;
26656;SDS011;14279;50.010;8.260;2022-12-13T16:21:25;24.90;;;13.53;;
26656;SDS011;14279;50.010;8.260;2022-12-13T16:23:51;27.23;;;14.77;;
26656;SDS011;14279;50.010;8.260;2022-12-13T16:26:21;23.20;;;13.30;;
26656;SDS011;14279;50.010;8.260;2022-12-13T16:28:50;29.00;;;14.67;;
26656;SDS011;14279;50.010;8.260;2022-12-13T16:31:20;23.73;;;14.07;;
26656;SDS011;14279;50.010;8.260;2022-12-13T16:33:50;31.30;;;14.77;;
26656;SDS011;14279;50.010;8.260;2022-12-13T16:36:15;41.53;;;14.33;;
26656;SDS011;14279;50.010;8.260;2022-12-13T16:38:41;32.73;;;14.40;;
26656;SDS011;14279;50.010;8.260;2022-12-13T16:41:07;25.20;;;12.67;;
26656;SDS011;14279;50.010;8.260;2022-12-13T16:43:33;23.77;;;13.40;;
26656;SDS011;14279;50.010;8.260;2022-12-13T16:46:02;23.40;;;14.27;;
26656;SDS011;14279;50.010;8.260;2022-12-13T16:48:29;23.27;;;13.80;;
26656;SDS011;14279;50.010;8.260;2022-12-13T16:50:54;27.10;;;14.50;;
26656;SDS011;14279;50.010;8.260;2022-12-13T16:53:20;24.20;;;13.77;;
26656;SDS011;14279;50.010;8.260;2022-12-13T16:55:45;24.50;;;13.70;;
26656;SDS011;14279;50.010;8.260;2022-12-13T16:58:12;28.23;;;13.90;;
26656;SDS011;14279;50.010;8.260;2022-12-13T17:00:39;25.00;;;13.20;;
26656;SDS011;14279;50.010;8.260;2022-12-13T17:03:05;27.80;;;15.00;;
26656;SDS011;14279;50.010;8.260;2022-12-13T17:05:32;19.70;;;13.10;;
26656;SDS011;14279;50.010;8.260;2022-12-13T17:08:03;24.37;;;13.03;;
26656;SDS011;14279;50.010;8.260;2022-12-13T17:10:29;26.17;;;12.97;;
26656;SDS011;14279;50.010;8.260;2022-12-13T17:12:57;25.40;;;15.03;;
26656;SDS011;14279;50.010;8.260;2022-12-13T17:15:25;22.53;;;12.20;;
26656;SDS011;14279;50.010;8.260;2022-12-13T17:17:56;27.20;;;14.27;;
26656;SDS011;14279;50.010;8.260;2022-12-13T17:20:24;28.03;;;14.37;;
26656;SDS011;14279;50.010;8.260;2022-12-13T17:22:51;26.03;;;14.60;;
26656;SDS011;14279;50.010;8.260;2022-12-13T17:25:16;27.47;;;14.47;;
26656;SDS011;14279;50.010;8.260;2022-12-13T17:27:42;25.77;;;13.90;;
26656;SDS011;14279;50.010;8.260;2022-12-13T17:30:09;27.63;;;15.40;;
26656;SDS011;14279;50.010;8.260;2022-12-13T17:32:38;25.17;;;12.50;;
26656;SDS011;14279;50.010;8.260;2022-12-13T17:35:03;26.73;;;13.97;;
26656;SDS011;14279;50.010;8.260;2022-12-13T17:40:35;23.93;;;13.50;;
26656;SDS011;14279;50.010;8.260;2022-12-13T17:43:01;32.80;;;13.10;;
26656;SDS011;14279;50.010;8.260;2022-12-13T17:45:26;23.90;;;13.17;;
26656;SDS011;14279;50.010;8.260;2022-12-13T17:47:54;21.87;;;13.13;;
26656;SDS011;14279;50.010;8.260;2022-12-13T17:50:23;27.27;;;15.47;;
26656;SDS011;14279;50.010;8.260;2022-12-13T17:52:51;28.00;;;15.40;;
26656;SDS011;14279;50.010;8.260;2022-12-13T17:55:16;28.30;;;16.10;;
26656;SDS011;14279;50.010;8.260;2022-12-13T17:57:42;23.87;;;13.20;;
26656;SDS011;14279;50.010;8.260;2022-12-13T18:00:07;23.90;;;12.63;;
26656;SDS011;14279;50.010;8.260;2022-12-13T18:02:33;24.20;;;14.10;;